Terminal Aerodrome Forecast
Issued by NWS

Home | Current Version | Previous Version | Text Only | Print | Product List | Glossary On
Versions: 1 2 3 4 5 6 7 8 9 10 11 12 13 14 15
015
FTUS43 KMQT 111517 AAA
TAFSAW
TAF AMD
KSAW 111517Z 1115/1212 08007KT 1SM -SN OVC010
     FM120600 00000KT 4SM -SHSN OVC008=

USA.gov is the U.S. government's official web portal to all federal, state and local government web resources and services.